createdAt,value
2017-08-20T00:00:51.517Z,15.67
2017-08-20T00:01:51.504Z,15.60
2017-08-20T00:02:51.873Z,15.64
2017-08-20T00:03:51.477Z,15.56
2017-08-20T00:04:51.469Z,15.65
2017-08-20T00:05:51.459Z,15.64
2017-08-20T00:06:51.446Z,15.59
2017-08-20T00:07:51.434Z,15.51
2017-08-20T00:08:51.468Z,15.50
2017-08-20T00:09:51.433Z,15.46
2017-08-20T00:10:51.413Z,15.41
2017-08-20T00:11:51.409Z,15.50
2017-08-20T00:12:51.388Z,15.49
2017-08-20T00:13:51.381Z,15.46
2017-08-20T00:14:51.782Z,15.49
2017-08-20T00:15:51.373Z,15.46
2017-08-20T00:16:51.350Z,15.51
2017-08-20T00:17:51.353Z,15.49
2017-08-20T00:18:51.341Z,15.50
2017-08-20T00:19:51.326Z,15.38
2017-08-20T00:20:51.591Z,15.36
2017-08-20T00:21:51.315Z,15.32
2017-08-20T00:22:51.293Z,15.16
2017-08-20T00:23:51.295Z,15.21
2017-08-20T00:24:51.275Z,15.25
2017-08-20T00:25:51.277Z,15.13
2017-08-20T00:26:51.597Z,15.03
2017-08-20T00:27:51.259Z,14.98
2017-08-20T00:28:51.244Z,14.95
2017-08-20T00:29:51.240Z,15.06
2017-08-20T00:30:51.217Z,15.11
2017-08-20T00:31:51.222Z,15.11
2017-08-20T00:32:51.559Z,15.14
2017-08-20T00:33:51.200Z,15.16
2017-08-20T00:34:51.183Z,15.20
2017-08-20T00:35:51.189Z,15.21
2017-08-20T00:36:51.168Z,15.21
2017-08-20T00:37:51.159Z,15.32
2017-08-20T00:38:51.527Z,15.29
2017-08-20T00:39:51.141Z,15.28
2017-08-20T00:40:51.120Z,15.27
2017-08-20T00:41:51.121Z,15.16
2017-08-20T00:42:51.104Z,15.27
2017-08-20T00:43:51.109Z,15.27
2017-08-20T00:44:51.423Z,15.21
2017-08-20T00:45:51.071Z,15.19
2017-08-20T00:46:51.062Z,15.23
2017-08-20T00:47:51.057Z,15.23
2017-08-20T00:48:51.048Z,15.20
2017-08-20T00:49:51.033Z,15.21
2017-08-20T00:50:51.098Z,15.32
2017-08-20T00:51:51.027Z,15.35
2017-08-20T00:52:51.006Z,15.29
2017-08-20T00:53:51.013Z,15.35
2017-08-20T00:54:50.985Z,15.34
2017-08-20T00:55:50.979Z,15.43
2017-08-20T00:56:51.057Z,15.38
2017-08-20T00:57:50.953Z,15.39
2017-08-20T00:58:50.944Z,15.31
2017-08-20T00:59:50.935Z,15.34
2017-08-20T01:00:50.945Z,15.35
2017-08-20T01:01:50.929Z,15.36
2017-08-20T01:02:51.269Z,15.38
2017-08-20T01:03:50.909Z,15.25
2017-08-20T01:04:50.894Z,15.25
2017-08-20T01:05:50.884Z,15.25
2017-08-20T01:06:50.883Z,15.21
2017-08-20T01:07:50.862Z,15.23
2017-08-20T01:08:51.299Z,15.14
2017-08-20T01:09:50.841Z,15.16
2017-08-20T01:10:50.832Z,15.11
2017-08-20T01:11:50.828Z,15.11
2017-08-20T01:12:50.823Z,15.10
2017-08-20T01:13:50.823Z,15.01
2017-08-20T01:14:51.237Z,15.09
2017-08-20T01:15:50.786Z,14.99
2017-08-20T01:16:50.772Z,15.10
2017-08-20T01:17:50.769Z,15.07
2017-08-20T01:18:50.754Z,15.13
2017-08-20T01:19:50.747Z,15.13
2017-08-20T01:20:50.819Z,15.10
2017-08-20T01:21:50.736Z,15.14
2017-08-20T01:22:50.717Z,15.01
2017-08-20T01:23:50.709Z,14.98
2017-08-20T01:24:50.697Z,14.98
2017-08-20T01:25:50.692Z,14.88
2017-08-20T01:26:51.061Z,14.95
2017-08-20T01:27:50.678Z,14.91
2017-08-20T01:28:50.667Z,14.95
2017-08-20T01:29:50.666Z,15.03
2017-08-20T01:30:50.640Z,15.03
2017-08-20T01:31:50.633Z,15.13
2017-08-20T01:32:50.986Z,15.11
2017-08-20T01:33:50.611Z,15.16
2017-08-20T01:34:50.604Z,15.17
2017-08-20T01:35:50.592Z,15.11
2017-08-20T01:36:50.596Z,15.11
2017-08-20T01:37:50.588Z,15.17
2017-08-20T01:38:50.899Z,15.11
2017-08-20T01:39:50.564Z,15.16
2017-08-20T01:40:50.547Z,15.13
2017-08-20T01:41:50.544Z,15.11
2017-08-20T01:42:50.526Z,15.19
2017-08-20T01:43:50.525Z,15.16
2017-08-20T01:44:50.678Z,15.21
2017-08-20T01:45:50.505Z,15.23
2017-08-20T01:46:50.496Z,15.23
2017-08-20T01:47:50.474Z,15.17
2017-08-20T01:48:50.468Z,15.31
2017-08-20T01:49:50.469Z,15.27
2017-08-20T01:50:50.500Z,15.32
2017-08-20T01:51:50.451Z,15.31
2017-08-20T01:52:50.438Z,15.29
2017-08-20T01:53:50.423Z,15.31
2017-08-20T01:54:50.417Z,15.23
2017-08-20T01:55:50.401Z,15.29
2017-08-20T01:56:50.547Z,15.20
2017-08-20T01:57:50.374Z,15.16
2017-08-20T01:58:50.383Z,15.20
2017-08-20T01:59:50.374Z,15.17
2017-08-20T02:00:50.349Z,15.16
2017-08-20T02:01:50.339Z,15.13
2017-08-20T02:02:50.668Z,15.13
2017-08-20T02:03:50.329Z,15.14
2017-08-20T02:04:50.314Z,15.14
2017-08-20T02:05:50.331Z,15.23
2017-08-20T02:06:50.290Z,15.20
2017-08-20T02:07:50.302Z,15.17
2017-08-20T02:08:50.424Z,15.13
2017-08-20T02:09:50.261Z,15.14
2017-08-20T02:10:50.262Z,15.10
2017-08-20T02:11:50.252Z,15.01
2017-08-20T02:12:50.242Z,14.94
2017-08-20T02:13:50.225Z,14.92
2017-08-20T02:14:50.381Z,14.86
2017-08-20T02:15:50.215Z,14.83
2017-08-20T02:16:50.202Z,14.83
2017-08-20T02:17:50.194Z,14.94
2017-08-20T02:18:50.185Z,14.86
2017-08-20T02:19:50.183Z,14.86
2017-08-20T02:20:50.244Z,14.86
2017-08-20T02:21:50.160Z,14.83
2017-08-20T02:22:50.134Z,14.86
2017-08-20T02:23:50.137Z,14.86
2017-08-20T02:24:50.116Z,14.91
2017-08-20T02:25:50.118Z,14.94
2017-08-20T02:26:50.458Z,15.06
2017-08-20T02:27:50.084Z,14.98
2017-08-20T02:28:50.076Z,15.09
2017-08-20T02:29:50.064Z,14.98
2017-08-20T02:30:50.058Z,15.10
2017-08-20T02:31:50.048Z,15.13
2017-08-20T02:32:50.405Z,15.13
2017-08-20T02:33:50.026Z,15.10
2017-08-20T02:34:50.019Z,15.03
2017-08-20T02:35:50.011Z,15.09
2017-08-20T02:36:50.011Z,15.10
2017-08-20T02:37:49.988Z,14.99
2017-08-20T02:38:50.446Z,14.95
2017-08-20T02:39:49.980Z,14.95
2017-08-20T02:40:49.983Z,14.89
2017-08-20T02:41:49.957Z,14.83
2017-08-20T02:42:49.940Z,14.88
2017-08-20T02:43:49.945Z,14.84
2017-08-20T02:44:50.307Z,14.88
2017-08-20T02:45:49.918Z,14.98
2017-08-20T02:46:49.907Z,15.01
2017-08-20T02:47:49.899Z,15.03
2017-08-20T02:48:49.896Z,15.02
2017-08-20T02:49:49.867Z,15.02
2017-08-20T02:50:50.210Z,15.10
2017-08-20T02:51:49.849Z,15.02
2017-08-20T02:52:49.851Z,15.02
2017-08-20T02:53:49.845Z,15.02
2017-08-20T02:54:49.821Z,14.96
2017-08-20T02:55:49.834Z,14.94
2017-08-20T02:56:50.005Z,14.95
2017-08-20T02:57:49.793Z,14.78
2017-08-20T02:58:49.796Z,14.84
2017-08-20T02:59:49.781Z,14.89
2017-08-20T03:00:49.784Z,14.89
2017-08-20T03:01:49.756Z,14.89
2017-08-20T03:02:50.022Z,14.86
2017-08-20T03:03:49.736Z,14.72
2017-08-20T03:04:49.721Z,14.86
2017-08-20T03:05:49.889Z,14.68
2017-08-20T03:06:49.727Z,14.70
2017-08-20T03:07:49.704Z,14.65
2017-08-20T03:08:50.030Z,14.50
2017-08-20T03:09:49.687Z,14.51
2017-08-20T03:10:49.663Z,14.62
2017-08-20T03:11:49.665Z,14.46
2017-08-20T03:12:49.647Z,14.50
2017-08-20T03:13:49.644Z,14.57
2017-08-20T03:14:49.950Z,14.51
2017-08-20T03:15:49.614Z,14.46
2017-08-20T03:16:49.604Z,14.42
2017-08-20T03:17:49.605Z,14.39
2017-08-20T03:18:49.594Z,14.40
2017-08-20T03:19:49.578Z,14.35
2017-08-20T03:20:49.955Z,14.42
2017-08-20T03:21:49.555Z,14.39
2017-08-20T03:22:49.560Z,14.36
2017-08-20T03:23:49.547Z,14.37
2017-08-20T03:24:49.537Z,14.37
2017-08-20T03:25:49.513Z,14.28
2017-08-20T03:26:49.857Z,14.32
2017-08-20T03:27:49.503Z,14.24
2017-08-20T03:28:49.487Z,14.29
2017-08-20T03:29:49.484Z,14.35
2017-08-20T03:30:49.483Z,14.29
2017-08-20T03:31:49.465Z,14.28
2017-08-20T03:32:49.520Z,14.28
2017-08-20T03:33:49.443Z,14.35
2017-08-20T03:34:49.438Z,14.32
2017-08-20T03:35:49.430Z,14.29
2017-08-20T03:36:49.420Z,14.35
2017-08-20T03:37:49.392Z,14.33
2017-08-20T03:38:49.806Z,14.35
2017-08-20T03:39:49.376Z,14.35
2017-08-20T03:40:49.377Z,14.29
2017-08-20T03:41:49.350Z,14.24
2017-08-20T03:42:49.357Z,14.21
2017-08-20T03:43:49.343Z,14.27
2017-08-20T03:44:49.495Z,14.21
2017-08-20T03:45:49.322Z,14.22
2017-08-20T03:46:49.303Z,14.20
2017-08-20T03:47:49.304Z,14.29
2017-08-20T03:48:49.283Z,14.29
2017-08-20T03:49:49.292Z,14.36
2017-08-20T03:50:49.557Z,14.32
2017-08-20T03:51:49.252Z,14.28
2017-08-20T03:52:49.252Z,14.24
2017-08-20T03:53:49.242Z,14.20
2017-08-20T03:54:49.224Z,14.15
2017-08-20T03:55:49.225Z,14.20
2017-08-20T03:56:49.535Z,14.17
2017-08-20T03:57:49.211Z,14.07
2017-08-20T03:58:49.191Z,14.20
2017-08-20T03:59:49.182Z,14.21
2017-08-20T04:00:49.160Z,14.17
2017-08-20T04:01:49.160Z,14.21
2017-08-20T04:02:49.219Z,14.17
2017-08-20T04:03:49.127Z,14.17
2017-08-20T04:04:49.125Z,14.20
2017-08-20T04:05:49.115Z,14.18
2017-08-20T04:06:49.100Z,14.20
2017-08-20T04:07:49.092Z,14.17
2017-08-20T04:08:49.516Z,14.20
2017-08-20T04:10:10.076Z,14.17
2017-08-20T04:10:49.058Z,14.12
2017-08-20T04:11:49.062Z,14.15
2017-08-20T04:12:49.050Z,14.14
2017-08-20T04:13:49.030Z,14.21
2017-08-20T04:14:49.328Z,14.22
2017-08-20T04:15:49.025Z,14.18
2017-08-20T04:16:48.998Z,14.21
2017-08-20T04:17:48.987Z,14.17
2017-08-20T04:18:48.982Z,14.20
2017-08-20T04:19:48.979Z,14.17
2017-08-20T04:20:49.115Z,14.21
2017-08-20T04:21:48.947Z,14.20
2017-08-20T04:22:48.950Z,14.22
2017-08-20T04:23:48.923Z,14.22
2017-08-20T04:24:48.916Z,14.28
2017-08-20T04:25:48.910Z,14.29
2017-08-20T04:26:49.052Z,14.32
2017-08-20T04:27:48.901Z,14.28
2017-08-20T04:28:48.877Z,14.32
2017-08-20T04:29:48.876Z,14.37
2017-08-20T04:30:48.858Z,14.37
2017-08-20T04:31:49.018Z,14.32
2017-08-20T04:32:48.855Z,14.35
2017-08-20T04:33:48.825Z,14.29
2017-08-20T04:34:48.827Z,14.29
2017-08-20T04:35:48.807Z,14.32
2017-08-20T04:36:48.810Z,14.35
2017-08-20T04:37:48.854Z,14.36
2017-08-20T04:38:48.788Z,14.32
2017-08-20T04:39:48.768Z,14.35
2017-08-20T04:40:48.758Z,14.33
2017-08-20T04:41:48.754Z,14.29
2017-08-20T04:42:48.746Z,14.27
2017-08-20T04:43:48.881Z,14.15
2017-08-20T04:44:48.723Z,14.22
2017-08-20T04:45:48.714Z,14.21
2017-08-20T04:46:48.695Z,14.20
2017-08-20T04:47:48.715Z,14.14
2017-08-20T04:48:48.674Z,14.12
2017-08-20T04:49:49.106Z,14.07
2017-08-20T04:50:48.652Z,14.21
2017-08-20T04:51:48.654Z,14.12
2017-08-20T04:52:48.639Z,14.07
2017-08-20T04:53:48.636Z,14.12
2017-08-20T04:54:48.617Z,14.17
2017-08-20T04:55:49.026Z,14.14
2017-08-20T04:56:48.604Z,13.99
2017-08-20T04:57:48.585Z,14.03
2017-08-20T04:58:48.577Z,14.07
2017-08-20T04:59:48.576Z,14.00
2017-08-20T05:00:48.559Z,14.02
2017-08-20T05:01:48.989Z,13.96
2017-08-20T05:02:48.544Z,13.92
2017-08-20T05:03:48.521Z,13.96
2017-08-20T05:04:48.508Z,13.92
2017-08-20T05:05:48.501Z,13.99
2017-08-20T05:06:48.488Z,14.04
2017-08-20T05:07:48.604Z,14.07
2017-08-20T05:08:48.477Z,14.06
2017-08-20T05:09:48.469Z,13.99
2017-08-20T05:10:48.460Z,13.99
2017-08-20T05:11:48.448Z,14.03
2017-08-20T05:12:48.440Z,14.00
2017-08-20T05:13:48.676Z,14.04
2017-08-20T05:14:48.421Z,14.00
2017-08-20T05:15:48.408Z,13.99
2017-08-20T05:16:48.386Z,13.99
2017-08-20T05:17:48.384Z,13.95
2017-08-20T05:18:48.385Z,14.00
2017-08-20T05:19:48.553Z,14.00
2017-08-20T05:20:48.366Z,14.02
2017-08-20T05:21:48.350Z,14.10
2017-08-20T05:22:48.334Z,14.15
2017-08-20T05:23:48.319Z,14.15
2017-08-20T05:24:48.317Z,14.14
2017-08-20T05:25:48.658Z,14.14
2017-08-20T05:26:48.297Z,14.20
2017-08-20T05:27:48.283Z,14.21
2017-08-20T05:28:48.279Z,14.18
2017-08-20T05:29:48.260Z,14.14
2017-08-20T05:30:48.253Z,14.14
2017-08-20T05:31:48.640Z,14.10
2017-08-20T05:32:48.237Z,14.12
2017-08-20T05:33:48.218Z,14.10
2017-08-20T05:34:48.213Z,14.09
2017-08-20T05:35:48.207Z,14.14
2017-08-20T05:36:48.184Z,14.20
2017-08-20T05:37:48.567Z,14.15
2017-08-20T05:38:48.168Z,14.18
2017-08-20T05:39:48.147Z,14.12
2017-08-20T05:40:48.137Z,14.14
2017-08-20T05:41:48.143Z,14.12
2017-08-20T05:42:48.462Z,14.18
2017-08-20T05:43:48.107Z,14.06
2017-08-20T05:44:48.106Z,14.07
2017-08-20T05:45:48.092Z,14.04
2017-08-20T05:46:48.076Z,14.07
2017-08-20T05:47:48.069Z,14.14
2017-08-20T05:48:48.423Z,14.07
2017-08-20T05:49:48.061Z,14.10
2017-08-20T05:50:48.032Z,14.07
2017-08-20T05:51:48.040Z,14.12
2017-08-20T05:52:48.027Z,14.14
2017-08-20T05:53:48.020Z,14.09
2017-08-20T05:54:48.090Z,14.10
2017-08-20T05:55:47.986Z,14.14
2017-08-20T05:56:47.995Z,14.22
2017-08-20T05:57:47.967Z,14.24
2017-08-20T05:58:47.972Z,14.18
2017-08-20T05:59:47.955Z,14.24
2017-08-20T06:00:48.014Z,14.20
2017-08-20T06:01:47.935Z,14.20
2017-08-20T06:02:47.918Z,14.21
2017-08-20T06:03:47.914Z,14.24
2017-08-20T06:04:47.902Z,14.21
2017-08-20T06:05:47.896Z,14.25
2017-08-20T06:06:47.959Z,14.20
2017-08-20T06:07:47.884Z,14.20
2017-08-20T06:08:47.868Z,14.22
2017-08-20T06:09:47.874Z,14.18
2017-08-20T06:10:47.831Z,14.28
2017-08-20T06:11:47.823Z,14.28
2017-08-20T06:12:48.062Z,14.33
2017-08-20T06:13:47.809Z,14.29
2017-08-20T06:14:47.794Z,14.29
2017-08-20T06:15:47.797Z,14.36
2017-08-20T06:16:47.790Z,14.45
2017-08-20T06:17:48.142Z,14.42
2017-08-20T06:18:47.768Z,14.40
2017-08-20T06:19:47.741Z,14.37
2017-08-20T06:20:47.749Z,14.39
2017-08-20T06:21:47.720Z,14.39
2017-08-20T06:22:47.712Z,14.35
2017-08-20T06:23:48.129Z,14.43
2017-08-20T06:24:47.699Z,14.43
2017-08-20T06:25:47.696Z,14.40
2017-08-20T06:26:47.676Z,14.50
2017-08-20T06:27:47.661Z,14.43
2017-08-20T06:28:47.665Z,14.57
2017-08-20T06:29:48.044Z,14.58
2017-08-20T06:30:47.653Z,14.43
2017-08-20T06:31:47.630Z,14.58
2017-08-20T06:32:47.625Z,14.64
2017-08-20T06:33:47.614Z,14.62
2017-08-20T06:34:47.589Z,14.57
2017-08-20T06:35:47.914Z,14.54
2017-08-20T06:36:47.581Z,14.57
2017-08-20T06:37:47.566Z,14.60
2017-08-20T06:38:47.550Z,14.65
2017-08-20T06:39:47.543Z,14.62
2017-08-20T06:40:47.542Z,14.64
2017-08-20T06:41:47.852Z,14.60
2017-08-20T06:42:47.514Z,14.64
2017-08-20T06:43:47.515Z,14.62
2017-08-20T06:44:47.504Z,14.68
2017-08-20T06:45:47.482Z,14.69
2017-08-20T06:46:47.482Z,14.72
2017-08-20T06:47:47.781Z,14.68
2017-08-20T06:48:47.451Z,14.64
2017-08-20T06:49:47.456Z,14.58
2017-08-20T06:50:47.445Z,14.61
2017-08-20T06:51:47.430Z,14.62
2017-08-20T06:52:47.416Z,14.62
2017-08-20T06:53:47.806Z,14.73
2017-08-20T06:54:47.405Z,14.75
2017-08-20T06:55:47.383Z,14.68
2017-08-20T06:56:47.372Z,14.75
2017-08-20T06:57:47.363Z,14.73
2017-08-20T06:58:47.368Z,14.70
2017-08-20T06:59:47.702Z,14.72
2017-08-20T07:00:47.353Z,14.78
2017-08-20T07:01:47.323Z,14.73
2017-08-20T07:02:47.316Z,14.72
2017-08-20T07:03:47.317Z,14.72
2017-08-20T07:04:47.310Z,14.75
2017-08-20T07:05:47.988Z,14.78
2017-08-20T07:06:47.294Z,14.81
2017-08-20T07:07:47.283Z,14.83
2017-08-20T07:08:47.259Z,14.72
2017-08-20T07:09:47.258Z,14.89
2017-08-20T07:10:47.251Z,14.86
2017-08-20T07:11:47.391Z,14.88
2017-08-20T07:12:47.228Z,14.84
2017-08-20T07:13:47.215Z,14.89
2017-08-20T07:14:47.213Z,14.75
2017-08-20T07:15:47.194Z,14.86
2017-08-20T07:16:47.177Z,14.95
2017-08-20T07:17:47.332Z,14.83
2017-08-20T07:18:47.175Z,14.88
2017-08-20T07:19:47.160Z,14.94
2017-08-20T07:20:47.145Z,14.81
2017-08-20T07:21:47.143Z,14.95
2017-08-20T07:22:47.135Z,14.98
2017-08-20T07:23:47.562Z,14.91
2017-08-20T07:24:47.098Z,14.84
2017-08-20T07:25:47.098Z,14.95
2017-08-20T07:26:47.080Z,14.96
2017-08-20T07:27:47.072Z,15.02
2017-08-20T07:28:47.275Z,14.98
2017-08-20T07:29:47.435Z,14.98
2017-08-20T07:30:47.054Z,15.02
2017-08-20T07:31:47.044Z,15.10
2017-08-20T07:32:47.041Z,15.03
2017-08-20T07:33:47.021Z,15.03
2017-08-20T07:34:47.775Z,15.11
2017-08-20T07:35:47.423Z,15.11
2017-08-20T07:36:47.551Z,15.11
2017-08-20T07:37:46.986Z,15.16
2017-08-20T07:38:46.962Z,15.27
2017-08-20T07:39:46.978Z,15.27
2017-08-20T07:40:46.943Z,15.21
2017-08-20T07:41:47.311Z,15.27
2017-08-20T07:42:46.940Z,15.21
2017-08-20T07:43:46.931Z,15.20
2017-08-20T07:44:46.923Z,15.19
2017-08-20T07:45:46.910Z,15.25
2017-08-20T07:46:46.908Z,15.25
2017-08-20T07:47:47.103Z,15.19
2017-08-20T07:48:46.891Z,15.19
2017-08-20T07:49:46.885Z,15.20
2017-08-20T07:50:47.647Z,15.19
2017-08-20T07:51:46.853Z,15.28
2017-08-20T07:52:46.848Z,15.17
2017-08-20T07:53:47.136Z,15.25
2017-08-20T07:54:46.815Z,15.32
2017-08-20T07:55:46.803Z,15.28
2017-08-20T07:56:46.812Z,15.31
2017-08-20T07:57:46.794Z,15.31
2017-08-20T07:58:46.773Z,15.31
2017-08-20T07:59:47.203Z,15.32
2017-08-20T08:00:46.756Z,15.35
2017-08-20T08:01:46.753Z,15.35
2017-08-20T08:02:46.752Z,15.39
2017-08-20T08:03:46.754Z,15.43
2017-08-20T08:04:46.736Z,15.53
2017-08-20T08:05:47.017Z,15.50
2017-08-20T08:06:46.699Z,15.53
2017-08-20T08:07:46.703Z,15.60
2017-08-20T08:08:46.722Z,15.59
2017-08-20T08:09:46.670Z,15.68
2017-08-20T08:10:46.671Z,15.75
2017-08-20T08:11:47.020Z,15.62
2017-08-20T08:12:46.644Z,15.65
2017-08-20T08:13:46.640Z,15.60
2017-08-20T08:14:46.639Z,15.69
2017-08-20T08:15:46.617Z,15.67
2017-08-20T08:16:46.624Z,15.57
2017-08-20T08:17:46.976Z,15.62
2017-08-20T08:18:46.603Z,15.71
2017-08-20T08:19:46.594Z,15.65
2017-08-20T08:20:46.573Z,15.62
2017-08-20T08:21:46.567Z,15.65
2017-08-20T08:22:46.560Z,15.76
2017-08-20T08:23:46.912Z,15.71
2017-08-20T08:24:46.546Z,15.64
2017-08-20T08:25:46.526Z,15.72
2017-08-20T08:26:46.530Z,15.75
2017-08-20T08:27:46.505Z,15.71
2017-08-20T08:28:46.498Z,15.80
2017-08-20T08:29:46.825Z,15.82
2017-08-20T08:30:46.482Z,15.83
2017-08-20T08:31:46.485Z,15.86
2017-08-20T08:32:46.458Z,15.90
2017-08-20T08:33:46.481Z,15.96
2017-08-20T08:34:46.609Z,15.92
2017-08-20T08:35:46.785Z,15.86
2017-08-20T08:36:46.424Z,15.86
2017-08-20T08:37:46.415Z,15.89
2017-08-20T08:38:46.408Z,15.92
2017-08-20T08:39:46.402Z,15.97
2017-08-20T08:40:46.405Z,15.94
2017-08-20T08:41:46.531Z,15.96
2017-08-20T08:42:46.373Z,16.01
2017-08-20T08:43:46.375Z,16.02
2017-08-20T08:44:46.366Z,16.11
2017-08-20T08:45:46.360Z,16.08
2017-08-20T08:46:46.336Z,16.14
2017-08-20T08:47:46.601Z,16.12
2017-08-20T08:48:46.325Z,16.17
2017-08-20T08:49:46.320Z,16.38
2017-08-20T08:50:46.327Z,16.31
2017-08-20T08:51:46.318Z,16.28
2017-08-20T08:52:46.357Z,16.34
2017-08-20T08:53:46.708Z,16.35
2017-08-20T08:54:46.289Z,16.30
2017-08-20T08:55:48.088Z,16.42
2017-08-20T08:56:46.269Z,16.35
2017-08-20T08:57:46.259Z,16.39
2017-08-20T08:58:46.247Z,16.42
2017-08-20T08:59:47.259Z,16.41
2017-08-20T09:00:46.705Z,16.49
2017-08-20T09:01:46.232Z,16.49
2017-08-20T09:02:46.236Z,16.43
2017-08-20T09:03:46.211Z,16.52
2017-08-20T09:04:46.188Z,16.48
2017-08-20T09:05:46.306Z,16.50
2017-08-20T09:06:46.179Z,16.58
2017-08-20T09:07:46.186Z,16.52
2017-08-20T09:08:46.152Z,16.49
2017-08-20T09:09:46.513Z,16.60
2017-08-20T09:10:46.128Z,16.52
2017-08-20T09:11:46.569Z,16.60
2017-08-20T09:12:48.085Z,16.53
2017-08-20T09:13:46.122Z,16.56
2017-08-20T09:14:46.127Z,16.58
2017-08-20T09:15:46.104Z,16.60
2017-08-20T09:16:46.078Z,16.64
2017-08-20T09:17:46.130Z,16.60
2017-08-20T09:18:46.222Z,16.53
2017-08-20T09:19:46.190Z,16.58
2017-08-20T09:20:46.071Z,16.53
2017-08-20T09:21:46.054Z,16.60
2017-08-20T09:22:50.577Z,16.53
2017-08-20T09:23:46.027Z,16.61
2017-08-20T09:24:46.016Z,16.52
2017-08-20T09:25:46.010Z,16.56
2017-08-20T09:26:46.008Z,16.57
2017-08-20T09:27:45.990Z,16.66
2017-08-20T09:28:46.131Z,16.68
2017-08-20T09:29:45.972Z,16.63
2017-08-20T09:30:45.981Z,16.66
2017-08-20T09:31:46.022Z,16.64
2017-08-20T09:32:46.165Z,16.68
2017-08-20T09:33:45.942Z,16.71
2017-08-20T09:34:46.261Z,16.75
2017-08-20T09:35:45.917Z,16.75
2017-08-20T09:36:45.919Z,16.81
2017-08-20T09:37:45.911Z,16.93
2017-08-20T09:38:45.892Z,16.94
2017-08-20T09:39:45.891Z,16.97
2017-08-20T09:40:46.046Z,16.93
2017-08-20T09:41:45.861Z,17.06
2017-08-20T09:42:45.855Z,16.98
2017-08-20T09:43:45.849Z,17.00
2017-08-20T09:44:45.853Z,17.01
2017-08-20T09:45:45.827Z,17.12
2017-08-20T09:46:45.905Z,17.11
2017-08-20T09:47:45.840Z,17.22
2017-08-20T09:48:47.611Z,17.26
2017-08-20T09:49:45.837Z,17.28
2017-08-20T09:50:46.597Z,17.19
2017-08-20T09:51:45.782Z,17.31
2017-08-20T09:52:45.950Z,17.36
2017-08-20T09:53:45.937Z,17.38
2017-08-20T09:54:45.944Z,17.36
2017-08-20T09:55:45.902Z,17.37
2017-08-20T09:56:45.906Z,17.25
2017-08-20T09:57:45.867Z,17.28
2017-08-20T09:58:45.818Z,17.37
2017-08-20T09:59:45.721Z,17.49
2017-08-20T10:00:45.842Z,17.52
2017-08-20T10:01:45.731Z,17.38
2017-08-20T10:02:45.696Z,17.36
2017-08-20T10:03:45.707Z,17.51
2017-08-20T10:04:46.048Z,17.54
2017-08-20T10:05:45.685Z,17.54
2017-08-20T10:06:45.663Z,17.55
2017-08-20T10:07:45.673Z,17.51
2017-08-20T10:08:45.667Z,17.49
2017-08-20T10:09:45.652Z,17.51
2017-08-20T10:10:46.064Z,17.62
2017-08-20T10:11:45.641Z,17.56
2017-08-20T10:12:45.633Z,17.62
2017-08-20T10:13:45.621Z,17.59
2017-08-20T10:14:45.625Z,17.52
2017-08-20T10:15:45.602Z,17.59
2017-08-20T10:16:45.773Z,17.66
2017-08-20T10:17:45.587Z,17.68
2017-08-20T10:18:45.743Z,17.68
2017-08-20T10:19:45.667Z,17.70
2017-08-20T10:20:45.576Z,17.66
2017-08-20T10:21:45.824Z,17.70
2017-08-20T10:22:46.642Z,17.59
2017-08-20T10:23:45.552Z,17.59
2017-08-20T10:24:45.537Z,17.66
2017-08-20T10:25:45.555Z,17.63
2017-08-20T10:26:46.113Z,17.68
2017-08-20T10:27:45.502Z,17.72
2017-08-20T10:28:47.147Z,17.75
2017-08-20T10:29:46.575Z,17.86
2017-08-20T10:30:45.478Z,17.82
2017-08-20T10:31:45.476Z,17.93
2017-08-20T10:32:45.493Z,17.87
2017-08-20T10:33:45.474Z,18.02
2017-08-20T10:34:46.772Z,17.82
2017-08-20T10:35:45.562Z,17.92
2017-08-20T10:36:45.450Z,17.90
2017-08-20T10:37:45.447Z,17.93
2017-08-20T10:38:45.426Z,17.92
2017-08-20T10:39:45.443Z,17.81
2017-08-20T10:40:46.626Z,17.92
2017-08-20T10:41:46.127Z,17.82
2017-08-20T10:42:45.398Z,17.84
2017-08-20T10:43:45.405Z,17.87
2017-08-20T10:44:45.384Z,17.87
2017-08-20T10:45:47.120Z,17.87
2017-08-20T10:46:45.692Z,17.92
2017-08-20T10:47:45.465Z,17.86
2017-08-20T10:49:06.428Z,17.86
2017-08-20T10:49:46.210Z,17.90
2017-08-20T10:50:57.274Z,17.87
2017-08-20T10:51:46.310Z,17.81
2017-08-20T10:52:45.490Z,17.89
2017-08-20T10:53:52.118Z,17.78
2017-08-20T10:54:45.307Z,17.72
2017-08-20T10:55:45.346Z,17.75
2017-08-20T10:56:45.288Z,17.77
2017-08-20T10:57:45.293Z,17.68
2017-08-20T10:58:45.676Z,17.71
2017-08-20T10:59:45.296Z,17.71
2017-08-20T11:01:06.317Z,17.64
2017-08-20T11:01:45.247Z,17.63
2017-08-20T11:02:45.280Z,17.68
2017-08-20T11:03:45.246Z,17.62
2017-08-20T11:04:45.443Z,17.62
2017-08-20T11:05:45.249Z,17.58
2017-08-20T11:06:45.215Z,17.71
2017-08-20T11:08:25.898Z,17.68
2017-08-20T11:08:46.900Z,17.70
2017-08-20T11:09:53.631Z,17.70
2017-08-20T11:10:45.906Z,17.70
2017-08-20T11:11:46.030Z,17.66
2017-08-20T11:12:45.938Z,17.62
2017-08-20T11:13:46.439Z,17.72
2017-08-20T11:14:45.217Z,17.72
2017-08-20T11:15:46.140Z,17.74
2017-08-20T11:16:45.140Z,17.77
2017-08-20T11:17:45.171Z,17.77
2017-08-20T11:18:45.145Z,17.79
2017-08-20T11:19:45.123Z,17.84
2017-08-20T11:20:45.232Z,17.81
2017-08-20T11:21:45.145Z,17.86
2017-08-20T11:22:45.110Z,17.84
2017-08-20T11:23:47.872Z,17.82
2017-08-20T11:24:45.144Z,17.82
2017-08-20T11:25:45.421Z,17.78
2017-08-20T11:26:45.701Z,17.79
2017-08-20T11:27:45.045Z,17.68
2017-08-20T11:28:45.060Z,17.58
2017-08-20T11:29:45.041Z,17.51
2017-08-20T11:30:45.032Z,17.46
2017-08-20T11:31:45.443Z,17.23
2017-08-20T11:32:45.684Z,17.04
2017-08-20T11:33:44.996Z,16.93
2017-08-20T11:34:45.012Z,16.81
2017-08-20T11:35:45.004Z,16.71
2017-08-20T11:36:45.007Z,16.66
2017-08-20T11:37:45.743Z,16.61
2017-08-20T11:38:44.982Z,16.49
2017-08-20T11:39:44.997Z,16.41
2017-08-20T11:40:44.949Z,16.38
2017-08-20T11:41:44.946Z,16.33
2017-08-20T11:42:45.010Z,16.28
2017-08-20T11:43:46.693Z,16.24
2017-08-20T11:44:44.940Z,16.28
2017-08-20T11:45:44.894Z,16.24
2017-08-20T11:46:47.777Z,16.17
2017-08-20T11:50:00.876Z,16.31
2017-08-20T11:51:00.736Z,16.28
2017-08-20T11:52:58.440Z,16.31
2017-08-20T11:53:00.128Z,16.33
2017-08-20T11:55:51.610Z,16.49
2017-08-20T11:56:50.794Z,16.42
2017-08-20T11:57:50.528Z,16.57
2017-08-20T11:58:50.475Z,16.49
2017-08-20T11:59:51.178Z,16.57
2017-08-20T12:00:51.972Z,16.63
2017-08-20T12:11:00.636Z,17.18
2017-08-20T12:12:01.143Z,17.23
2017-08-20T12:13:00.596Z,17.36
2017-08-20T12:14:00.598Z,17.43
2017-08-20T12:14:59.793Z,17.43
2017-08-20T12:15:59.776Z,17.54
2017-08-20T12:17:02.269Z,17.49
2017-08-20T12:18:00.588Z,17.59
2017-08-20T12:18:59.707Z,17.66
2017-08-20T12:19:59.717Z,17.78
2017-08-20T12:20:59.685Z,17.86
2017-08-20T12:21:59.680Z,17.95
2017-08-20T12:22:59.827Z,17.95
2017-08-20T12:23:59.657Z,17.93
2017-08-20T12:24:59.677Z,17.86
2017-08-20T12:25:59.660Z,17.79
2017-08-20T12:26:59.664Z,17.79
2017-08-20T12:27:59.664Z,17.86
2017-08-20T12:29:00.069Z,17.77
2017-08-20T12:29:59.634Z,17.71
2017-08-20T12:30:59.627Z,17.75
2017-08-20T12:31:59.595Z,17.75
2017-08-20T12:32:59.600Z,17.71
2017-08-20T12:33:59.605Z,17.72
2017-08-20T12:35:00.024Z,17.64
2017-08-20T12:35:59.966Z,17.59
2017-08-20T12:36:59.589Z,17.58
2017-08-20T12:37:59.561Z,17.66
2017-08-20T12:38:59.563Z,17.62
2017-08-20T12:39:59.534Z,17.64
2017-08-20T12:41:00.004Z,17.63
2017-08-20T12:41:59.530Z,17.66
2017-08-20T12:42:59.531Z,17.68
2017-08-20T12:43:59.505Z,17.71
2017-08-20T12:44:59.521Z,17.74
2017-08-20T12:45:59.488Z,17.68
2017-08-20T12:46:59.859Z,17.72
2017-08-20T12:47:59.477Z,17.82
2017-08-20T12:49:00.563Z,17.81
2017-08-20T12:49:59.471Z,17.92
2017-08-20T12:50:59.459Z,17.89
2017-08-20T12:51:59.456Z,17.87
2017-08-20T12:52:59.780Z,17.93
2017-08-20T12:53:59.442Z,17.99
2017-08-20T12:54:59.446Z,17.96
2017-08-20T12:55:59.444Z,18.00
2017-08-20T12:56:59.407Z,18.07
2017-08-20T12:58:00.336Z,18.03
2017-08-20T12:58:59.787Z,18.11
2017-08-20T12:59:59.390Z,18.20
2017-08-20T13:00:59.398Z,18.35
2017-08-20T13:01:59.373Z,18.32
2017-08-20T13:02:59.361Z,18.35
2017-08-20T13:03:59.373Z,18.52
2017-08-20T13:04:59.886Z,18.52
2017-08-20T13:05:59.357Z,18.58